sensor_id;sensor_type;location;lat;lon;timestamp;temperature;humidity
43772;HTU21D;59066;54.782;32.024;2022-12-01T00:01:20;-6.53;71.44
43772;HTU21D;59066;54.782;32.024;2022-12-01T00:03:48;-6.58;71.56
43772;HTU21D;59066;54.782;32.024;2022-12-01T00:06:18;-6.52;71.67
43772;HTU21D;59066;54.782;32.024;2022-12-01T00:08:48;-6.52;71.89
43772;HTU21D;59066;54.782;32.024;2022-12-01T00:11:36;-6.43;72.19
43772;HTU21D;59066;54.782;32.024;2022-12-01T00:14:05;-6.38;72.10
43772;HTU21D;59066;54.782;32.024;2022-12-01T00:16:32;-6.24;72.16
43772;HTU21D;59066;54.782;32.024;2022-12-01T00:19:00;-6.16;71.89
43772;HTU21D;59066;54.782;32.024;2022-12-01T00:21:27;-6.08;71.80
43772;HTU21D;59066;54.782;32.024;2022-12-01T00:23:56;-6.07;71.58
43772;HTU21D;59066;54.782;32.024;2022-12-01T00:26:25;-6.11;71.38
43772;HTU21D;59066;54.782;32.024;2022-12-01T00:28:56;-6.12;71.45
43772;HTU21D;59066;54.782;32.024;2022-12-01T00:31:24;-6.18;71.46
43772;HTU21D;59066;54.782;32.024;2022-12-01T00:33:52;-6.19;71.22
43772;HTU21D;59066;54.782;32.024;2022-12-01T00:36:21;-6.24;71.34
43772;HTU21D;59066;54.782;32.024;2022-12-01T00:38:53;-6.31;71.42
43772;HTU21D;59066;54.782;32.024;2022-12-01T00:41:22;-6.32;71.69
43772;HTU21D;59066;54.782;32.024;2022-12-01T00:43:50;-6.24;71.47
43772;HTU21D;59066;54.782;32.024;2022-12-01T00:46:18;-6.30;71.47
43772;HTU21D;59066;54.782;32.024;2022-12-01T00:48:46;-6.33;71.66
43772;HTU21D;59066;54.782;32.024;2022-12-01T00:51:13;-6.31;71.35
43772;HTU21D;59066;54.782;32.024;2022-12-01T00:53:41;-6.37;71.48
43772;HTU21D;59066;54.782;32.024;2022-12-01T00:56:08;-6.36;71.58
43772;HTU21D;59066;54.782;32.024;2022-12-01T00:58:36;-6.29;71.68
43772;HTU21D;59066;54.782;32.024;2022-12-01T01:01:03;-6.27;71.39
43772;HTU21D;59066;54.782;32.024;2022-12-01T01:03:31;-6.30;71.32
43772;HTU21D;59066;54.782;32.024;2022-12-01T01:06:08;-6.29;71.37
43772;HTU21D;59066;54.782;32.024;2022-12-01T01:08:37;-6.30;71.35
43772;HTU21D;59066;54.782;32.024;2022-12-01T01:11:06;-6.34;71.35
43772;HTU21D;59066;54.782;32.024;2022-12-01T01:13:34;-6.26;71.45
43772;HTU21D;59066;54.782;32.024;2022-12-01T01:16:04;-6.32;71.43
43772;HTU21D;59066;54.782;32.024;2022-12-01T01:18:33;-6.35;71.40
43772;HTU21D;59066;54.782;32.024;2022-12-01T01:21:03;-6.37;71.51
43772;HTU21D;59066;54.782;32.024;2022-12-01T01:23:32;-6.30;71.49
43772;HTU21D;59066;54.782;32.024;2022-12-01T01:28:40;-6.36;71.51
43772;HTU21D;59066;54.782;32.024;2022-12-01T01:31:09;-6.34;71.52
43772;HTU21D;59066;54.782;32.024;2022-12-01T01:33:37;-6.26;71.62
43772;HTU21D;59066;54.782;32.024;2022-12-01T01:36:06;-6.24;71.49
43772;HTU21D;59066;54.782;32.024;2022-12-01T01:38:34;-6.28;71.35
43772;HTU21D;59066;54.782;32.024;2022-12-01T01:41:02;-6.30;71.50
43772;HTU21D;59066;54.782;32.024;2022-12-01T01:43:47;-6.31;71.42
43772;HTU21D;59066;54.782;32.024;2022-12-01T01:46:29;-6.35;71.48
43772;HTU21D;59066;54.782;32.024;2022-12-01T01:48:59;-6.35;71.41
43772;HTU21D;59066;54.782;32.024;2022-12-01T01:51:40;-6.37;71.60
43772;HTU21D;59066;54.782;32.024;2022-12-01T01:54:11;-6.36;71.70
43772;HTU21D;59066;54.782;32.024;2022-12-01T01:56:43;-6.36;71.85
43772;HTU21D;59066;54.782;32.024;2022-12-01T01:59:15;-6.33;71.88
43772;HTU21D;59066;54.782;32.024;2022-12-01T02:01:44;-6.28;71.90
43772;HTU21D;59066;54.782;32.024;2022-12-01T02:04:15;-6.23;71.79
43772;HTU21D;59066;54.782;32.024;2022-12-01T02:06:42;-6.22;71.51
43772;HTU21D;59066;54.782;32.024;2022-12-01T02:09:11;-6.23;71.54
43772;HTU21D;59066;54.782;32.024;2022-12-01T02:11:50;-6.24;71.45
43772;HTU21D;59066;54.782;32.024;2022-12-01T02:14:30;-6.21;71.64
43772;HTU21D;59066;54.782;32.024;2022-12-01T02:17:14;-6.18;71.60
43772;HTU21D;59066;54.782;32.024;2022-12-01T02:35:11;-6.22;71.45
43772;HTU21D;59066;54.782;32.024;2022-12-01T02:40:32;-6.20;71.33
43772;HTU21D;59066;54.782;32.024;2022-12-01T02:46:09;-6.16;71.30
43772;HTU21D;59066;54.782;32.024;2022-12-01T02:48:40;-6.14;71.28
43772;HTU21D;59066;54.782;32.024;2022-12-01T02:51:30;-6.13;71.31
43772;HTU21D;59066;54.782;32.024;2022-12-01T02:54:00;-6.12;71.31
43772;HTU21D;59066;54.782;32.024;2022-12-01T02:56:28;-6.11;71.35
43772;HTU21D;59066;54.782;32.024;2022-12-01T02:58:56;-6.09;71.52
43772;HTU21D;59066;54.782;32.024;2022-12-01T03:09:54;-5.96;71.57
43772;HTU21D;59066;54.782;32.024;2022-12-01T03:12:34;-5.91;71.41
43772;HTU21D;59066;54.782;32.024;2022-12-01T03:15:35;-5.85;71.50
43772;HTU21D;59066;54.782;32.024;2022-12-01T03:20:49;-5.78;71.40
43772;HTU21D;59066;54.782;32.024;2022-12-01T03:23:22;-5.77;71.45
43772;HTU21D;59066;54.782;32.024;2022-12-01T03:25:54;-5.77;71.43
43772;HTU21D;59066;54.782;32.024;2022-12-01T03:28:27;-5.74;71.16
43772;HTU21D;59066;54.782;32.024;2022-12-01T03:30:59;-5.81;71.47
43772;HTU21D;59066;54.782;32.024;2022-12-01T03:33:34;-5.77;71.42
43772;HTU21D;59066;54.782;32.024;2022-12-01T03:36:04;-5.76;71.61
43772;HTU21D;59066;54.782;32.024;2022-12-01T03:38:35;-5.68;71.48
43772;HTU21D;59066;54.782;32.024;2022-12-01T03:41:14;-5.63;71.38
43772;HTU21D;59066;54.782;32.024;2022-12-01T03:43:47;-5.62;71.31
43772;HTU21D;59066;54.782;32.024;2022-12-01T03:46:30;-5.62;71.26
43772;HTU21D;59066;54.782;32.024;2022-12-01T03:48:59;-5.62;71.26
43772;HTU21D;59066;54.782;32.024;2022-12-01T03:54:10;-5.65;71.23
43772;HTU21D;59066;54.782;32.024;2022-12-01T03:56:47;-5.65;71.25
43772;HTU21D;59066;54.782;32.024;2022-12-01T03:59:18;-5.62;71.29
43772;HTU21D;59066;54.782;32.024;2022-12-01T04:01:47;-5.62;71.29
43772;HTU21D;59066;54.782;32.024;2022-12-01T04:04:14;-5.62;71.25
43772;HTU21D;59066;54.782;32.024;2022-12-01T04:06:45;-5.57;71.13
43772;HTU21D;59066;54.782;32.024;2022-12-01T04:09:13;-5.63;71.12
43772;HTU21D;59066;54.782;32.024;2022-12-01T04:11:40;-5.65;71.13
43772;HTU21D;59066;54.782;32.024;2022-12-01T04:14:26;-5.65;70.93
43772;HTU21D;59066;54.782;32.024;2022-12-01T04:16:54;-5.70;71.08
43772;HTU21D;59066;54.782;32.024;2022-12-01T04:19:21;-5.73;70.75
43772;HTU21D;59066;54.782;32.024;2022-12-01T04:21:48;-5.78;71.09
43772;HTU21D;59066;54.782;32.024;2022-12-01T04:24:16;-5.75;71.16
43772;HTU21D;59066;54.782;32.024;2022-12-01T04:26:43;-5.77;70.92
43772;HTU21D;59066;54.782;32.024;2022-12-01T04:29:12;-5.77;71.14
43772;HTU21D;59066;54.782;32.024;2022-12-01T04:31:39;-5.77;70.90
43772;HTU21D;59066;54.782;32.024;2022-12-01T04:34:08;-5.79;71.11
43772;HTU21D;59066;54.782;32.024;2022-12-01T04:36:36;-5.84;70.89
43772;HTU21D;59066;54.782;32.024;2022-12-01T04:39:03;-5.86;70.95
43772;HTU21D;59066;54.782;32.024;2022-12-01T04:41:31;-5.84;71.16
43772;HTU21D;59066;54.782;32.024;2022-12-01T04:43:58;-5.79;71.12
43772;HTU21D;59066;54.782;32.024;2022-12-01T04:46:26;-5.78;70.99
43772;HTU21D;59066;54.782;32.024;2022-12-01T04:48:54;-5.78;70.75
43772;HTU21D;59066;54.782;32.024;2022-12-01T04:51:21;-5.81;71.00
43772;HTU21D;59066;54.782;32.024;2022-12-01T04:53:49;-5.81;70.98
43772;HTU21D;59066;54.782;32.024;2022-12-01T04:56:17;-5.85;70.91
43772;HTU21D;59066;54.782;32.024;2022-12-01T04:58:44;-5.83;71.14
43772;HTU21D;59066;54.782;32.024;2022-12-01T05:01:14;-5.83;71.13
43772;HTU21D;59066;54.782;32.024;2022-12-01T05:03:43;-5.84;71.08
43772;HTU21D;59066;54.782;32.024;2022-12-01T05:06:14;-5.79;71.06
43772;HTU21D;59066;54.782;32.024;2022-12-01T05:08:41;-5.85;71.00
43772;HTU21D;59066;54.782;32.024;2022-12-01T05:11:10;-5.86;71.13
43772;HTU21D;59066;54.782;32.024;2022-12-01T05:13:39;-5.88;71.11
43772;HTU21D;59066;54.782;32.024;2022-12-01T05:16:15;-5.88;71.13
43772;HTU21D;59066;54.782;32.024;2022-12-01T05:18:47;-5.90;71.22
43772;HTU21D;59066;54.782;32.024;2022-12-01T05:21:15;-5.91;71.03
43772;HTU21D;59066;54.782;32.024;2022-12-01T05:23:43;-5.90;71.32
43772;HTU21D;59066;54.782;32.024;2022-12-01T05:26:11;-5.86;71.24
43772;HTU21D;59066;54.782;32.024;2022-12-01T05:28:39;-5.88;71.11
43772;HTU21D;59066;54.782;32.024;2022-12-01T05:31:07;-5.89;71.16
43772;HTU21D;59066;54.782;32.024;2022-12-01T05:33:34;-5.87;71.26
43772;HTU21D;59066;54.782;32.024;2022-12-01T05:36:01;-5.88;71.15
43772;HTU21D;59066;54.782;32.024;2022-12-01T05:38:29;-5.88;71.29
43772;HTU21D;59066;54.782;32.024;2022-12-01T05:40:56;-5.87;71.20
43772;HTU21D;59066;54.782;32.024;2022-12-01T05:43:24;-5.84;71.14
43772;HTU21D;59066;54.782;32.024;2022-12-01T05:45:56;-5.90;71.13
43772;HTU21D;59066;54.782;32.024;2022-12-01T05:48:23;-5.96;71.19
43772;HTU21D;59066;54.782;32.024;2022-12-01T05:50:51;-5.97;71.22
43772;HTU21D;59066;54.782;32.024;2022-12-01T05:53:19;-6.00;71.24
43772;HTU21D;59066;54.782;32.024;2022-12-01T05:55:53;-5.98;71.46
43772;HTU21D;59066;54.782;32.024;2022-12-01T05:58:21;-5.91;71.42
43772;HTU21D;59066;54.782;32.024;2022-12-01T06:00:48;-5.87;71.42
43772;HTU21D;59066;54.782;32.024;2022-12-01T06:03:15;-5.83;71.45
43772;HTU21D;59066;54.782;32.024;2022-12-01T06:05:43;-5.76;71.18
43772;HTU21D;59066;54.782;32.024;2022-12-01T06:08:10;-5.72;71.32
43772;HTU21D;59066;54.782;32.024;2022-12-01T06:10:37;-5.74;71.19
43772;HTU21D;59066;54.782;32.024;2022-12-01T06:13:05;-5.68;71.45
43772;HTU21D;59066;54.782;32.024;2022-12-01T06:15:32;-5.69;71.11
43772;HTU21D;59066;54.782;32.024;2022-12-01T06:18:00;-5.69;71.33
43772;HTU21D;59066;54.782;32.024;2022-12-01T06:20:27;-5.59;71.42
43772;HTU21D;59066;54.782;32.024;2022-12-01T06:22:55;-5.50;71.52
43772;HTU21D;59066;54.782;32.024;2022-12-01T06:25:22;-5.47;71.33
43772;HTU21D;59066;54.782;32.024;2022-12-01T06:27:54;-5.44;71.14
43772;HTU21D;59066;54.782;32.024;2022-12-01T06:30:22;-5.46;71.35
43772;HTU21D;59066;54.782;32.024;2022-12-01T06:32:49;-5.37;71.40
43772;HTU21D;59066;54.782;32.024;2022-12-01T06:35:17;-5.31;71.32
43772;HTU21D;59066;54.782;32.024;2022-12-01T06:37:44;-5.24;71.39
43772;HTU21D;59066;54.782;32.024;2022-12-01T06:40:12;-5.13;71.32
43772;HTU21D;59066;54.782;32.024;2022-12-01T06:42:39;-5.10;71.33
43772;HTU21D;59066;54.782;32.024;2022-12-01T06:45:07;-5.11;70.85
43772;HTU21D;59066;54.782;32.024;2022-12-01T06:47:34;-5.01;71.35
43772;HTU21D;59066;54.782;32.024;2022-12-01T06:50:02;-5.01;71.14
43772;HTU21D;59066;54.782;32.024;2022-12-01T06:52:31;-4.95;71.18
43772;HTU21D;59066;54.782;32.024;2022-12-01T06:54:58;-4.90;71.13
43772;HTU21D;59066;54.782;32.024;2022-12-01T06:57:26;-4.84;70.93
43772;HTU21D;59066;54.782;32.024;2022-12-01T06:59:53;-4.85;70.92
43772;HTU21D;59066;54.782;32.024;2022-12-01T07:02:22;-4.87;70.58
43772;HTU21D;59066;54.782;32.024;2022-12-01T07:04:49;-4.90;70.91
43772;HTU21D;59066;54.782;32.024;2022-12-01T07:07:17;-4.87;70.84
43772;HTU21D;59066;54.782;32.024;2022-12-01T07:09:44;-4.87;70.69
43772;HTU21D;59066;54.782;32.024;2022-12-01T07:12:12;-4.91;70.82
43772;HTU21D;59066;54.782;32.024;2022-12-01T07:14:39;-4.93;70.74
43772;HTU21D;59066;54.782;32.024;2022-12-01T07:17:08;-4.86;71.07
43772;HTU21D;59066;54.782;32.024;2022-12-01T07:19:36;-4.81;70.97
43772;HTU21D;59066;54.782;32.024;2022-12-01T07:22:03;-4.81;70.97
43772;HTU21D;59066;54.782;32.024;2022-12-01T07:24:31;-4.73;70.87
43772;HTU21D;59066;54.782;32.024;2022-12-01T07:26:58;-4.70;70.93
43772;HTU21D;59066;54.782;32.024;2022-12-01T07:29:26;-4.66;70.81
43772;HTU21D;59066;54.782;32.024;2022-12-01T07:31:53;-4.61;70.77
43772;HTU21D;59066;54.782;32.024;2022-12-01T07:34:20;-4.58;70.64
43772;HTU21D;59066;54.782;32.024;2022-12-01T07:36:48;-4.51;70.75
43772;HTU21D;59066;54.782;32.024;2022-12-01T07:39:15;-4.50;70.89
43772;HTU21D;59066;54.782;32.024;2022-12-01T07:41:43;-4.40;70.89
43772;HTU21D;59066;54.782;32.024;2022-12-01T07:44:10;-4.34;70.82
43772;HTU21D;59066;54.782;32.024;2022-12-01T07:46:38;-4.23;70.58
43772;HTU21D;59066;54.782;32.024;2022-12-01T07:49:06;-4.23;70.26
43772;HTU21D;59066;54.782;32.024;2022-12-01T07:51:37;-4.19;70.75
43772;HTU21D;59066;54.782;32.024;2022-12-01T07:54:05;-4.07;70.68
43772;HTU21D;59066;54.782;32.024;2022-12-01T07:56:33;-3.91;70.64
43772;HTU21D;59066;54.782;32.024;2022-12-01T07:59:00;-3.85;70.43
43772;HTU21D;59066;54.782;32.024;2022-12-01T08:01:28;-3.77;70.45
43772;HTU21D;59066;54.782;32.024;2022-12-01T08:03:56;-3.63;70.38
43772;HTU21D;59066;54.782;32.024;2022-12-01T08:06:25;-3.55;70.10
43772;HTU21D;59066;54.782;32.024;2022-12-01T08:08:52;-3.42;70.09
43772;HTU21D;59066;54.782;32.024;2022-12-01T08:11:25;-3.33;70.04
43772;HTU21D;59066;54.782;32.024;2022-12-01T08:13:52;-3.30;69.66
43772;HTU21D;59066;54.782;32.024;2022-12-01T08:16:21;-3.28;69.89
43772;HTU21D;59066;54.782;32.024;2022-12-01T08:18:49;-3.20;69.98
43772;HTU21D;59066;54.782;32.024;2022-12-01T08:21:20;-3.07;69.81
43772;HTU21D;59066;54.782;32.024;2022-12-01T08:23:52;-3.00;69.47
43772;HTU21D;59066;54.782;32.024;2022-12-01T08:26:20;-2.95;69.57
43772;HTU21D;59066;54.782;32.024;2022-12-01T08:28:47;-2.89;69.53
43772;HTU21D;59066;54.782;32.024;2022-12-01T08:31:23;-2.84;69.59
43772;HTU21D;59066;54.782;32.024;2022-12-01T08:33:52;-2.84;69.42
43772;HTU21D;59066;54.782;32.024;2022-12-01T08:36:21;-2.82;69.28
43772;HTU21D;59066;54.782;32.024;2022-12-01T08:38:52;-2.76;69.23
43772;HTU21D;59066;54.782;32.024;2022-12-01T08:41:20;-2.86;68.72
43772;HTU21D;59066;54.782;32.024;2022-12-01T08:43:48;-2.89;68.78
43772;HTU21D;59066;54.782;32.024;2022-12-01T08:46:27;-2.86;69.07
43772;HTU21D;59066;54.782;32.024;2022-12-01T08:48:57;-2.81;68.84
43772;HTU21D;59066;54.782;32.024;2022-12-01T08:51:24;-2.83;68.99
43772;HTU21D;59066;54.782;32.024;2022-12-01T08:53:54;-2.80;68.63
43772;HTU21D;59066;54.782;32.024;2022-12-01T08:56:29;-2.90;68.44
43772;HTU21D;59066;54.782;32.024;2022-12-01T08:58:57;-2.81;68.70
43772;HTU21D;59066;54.782;32.024;2022-12-01T09:01:25;-2.66;68.65
43772;HTU21D;59066;54.782;32.024;2022-12-01T09:03:55;-2.60;68.42
43772;HTU21D;59066;54.782;32.024;2022-12-01T09:06:43;-2.50;68.34
43772;HTU21D;59066;54.782;32.024;2022-12-01T09:09:20;-2.47;68.26
43772;HTU21D;59066;54.782;32.024;2022-12-01T09:11:48;-2.29;68.33
43772;HTU21D;59066;54.782;32.024;2022-12-01T09:14:16;-2.21;67.98
43772;HTU21D;59066;54.782;32.024;2022-12-01T09:16:45;-2.08;68.24
43772;HTU21D;59066;54.782;32.024;2022-12-01T09:19:13;-2.01;67.94
43772;HTU21D;59066;54.782;32.024;2022-12-01T09:21:46;-1.92;67.78
43772;HTU21D;59066;54.782;32.024;2022-12-01T09:24:15;-1.79;67.93
43772;HTU21D;59066;54.782;32.024;2022-12-01T09:26:42;-1.74;67.74
43772;HTU21D;59066;54.782;32.024;2022-12-01T09:29:11;-1.61;67.74
43772;HTU21D;59066;54.782;32.024;2022-12-01T09:31:40;-1.47;67.77
43772;HTU21D;59066;54.782;32.024;2022-12-01T09:34:12;-1.41;67.59
43772;HTU21D;59066;54.782;32.024;2022-12-01T09:36:40;-1.30;67.27
43772;HTU21D;59066;54.782;32.024;2022-12-01T09:39:11;-1.25;67.33
43772;HTU21D;59066;54.782;32.024;2022-12-01T09:42:02;-1.19;67.39
43772;HTU21D;59066;54.782;32.024;2022-12-01T09:44:41;-1.12;67.17
43772;HTU21D;59066;54.782;32.024;2022-12-01T09:52:17;-1.11;67.47
43772;HTU21D;59066;54.782;32.024;2022-12-01T09:54:46;-0.97;67.34
43772;HTU21D;59066;54.782;32.024;2022-12-01T09:57:30;-0.88;67.02
43772;HTU21D;59066;54.782;32.024;2022-12-01T10:00:00;-0.89;66.90
43772;HTU21D;59066;54.782;32.024;2022-12-01T10:02:56;-0.86;66.86
43772;HTU21D;59066;54.782;32.024;2022-12-01T10:05:30;-0.85;66.65
43772;HTU21D;59066;54.782;32.024;2022-12-01T10:08:03;-0.90;65.81
43772;HTU21D;59066;54.782;32.024;2022-12-01T10:10:48;-0.99;66.62
43772;HTU21D;59066;54.782;32.024;2022-12-01T10:13:23;-0.97;66.57
43772;HTU21D;59066;54.782;32.024;2022-12-01T10:18:55;-1.02;66.35
43772;HTU21D;59066;54.782;32.024;2022-12-01T10:32:18;-0.64;66.14
43772;HTU21D;59066;54.782;32.024;2022-12-01T10:34:46;-0.56;66.15
43772;HTU21D;59066;54.782;32.024;2022-12-01T10:37:23;-0.50;65.68
43772;HTU21D;59066;54.782;32.024;2022-12-01T10:39:53;-0.47;65.69
43772;HTU21D;59066;54.782;32.024;2022-12-01T10:42:35;-0.44;65.60
43772;HTU21D;59066;54.782;32.024;2022-12-01T10:45:05;-0.36;65.77
43772;HTU21D;59066;54.782;32.024;2022-12-01T10:47:33;-0.08;65.98
43772;HTU21D;59066;54.782;32.024;2022-12-01T10:50:02;-0.02;65.04
43772;HTU21D;59066;54.782;32.024;2022-12-01T10:52:39;0.05;65.36
43772;HTU21D;59066;54.782;32.024;2022-12-01T10:55:28;0.07;65.30
43772;HTU21D;59066;54.782;32.024;2022-12-01T10:57:59;0.02;65.27
43772;HTU21D;59066;54.782;32.024;2022-12-01T11:00:37;0.07;65.33
43772;HTU21D;59066;54.782;32.024;2022-12-01T11:03:32;0.05;64.94
43772;HTU21D;59066;54.782;32.024;2022-12-01T11:06:03;0.10;65.35
43772;HTU21D;59066;54.782;32.024;2022-12-01T11:08:50;0.12;65.27
43772;HTU21D;59066;54.782;32.024;2022-12-01T11:11:39;0.40;64.87
43772;HTU21D;59066;54.782;32.024;2022-12-01T11:14:19;0.37;64.51
43772;HTU21D;59066;54.782;32.024;2022-12-01T11:16:48;0.80;65.39
43772;HTU21D;59066;54.782;32.024;2022-12-01T11:19:32;1.56;64.89
43772;HTU21D;59066;54.782;32.024;2022-12-01T11:22:21;2.22;63.92
43772;HTU21D;59066;54.782;32.024;2022-12-01T11:27:22;2.98;63.05
43772;HTU21D;59066;54.782;32.024;2022-12-01T11:30:00;2.65;61.67
43772;HTU21D;59066;54.782;32.024;2022-12-01T11:32:38;2.59;63.02
43772;HTU21D;59066;54.782;32.024;2022-12-01T11:35:16;2.57;63.03
43772;HTU21D;59066;54.782;32.024;2022-12-01T11:37:56;2.71;62.72
43772;HTU21D;59066;54.782;32.024;2022-12-01T11:40:49;2.61;61.20
43772;HTU21D;59066;54.782;32.024;2022-12-01T11:45:56;2.17;62.15
43772;HTU21D;59066;54.782;32.024;2022-12-01T11:48:27;2.43;62.60
43772;HTU21D;59066;54.782;32.024;2022-12-01T11:51:23;3.27;61.08
43772;HTU21D;59066;54.782;32.024;2022-12-01T11:54:12;3.89;60.42
43772;HTU21D;59066;54.782;32.024;2022-12-01T11:56:42;3.67;60.27
43772;HTU21D;59066;54.782;32.024;2022-12-01T11:59:25;3.36;60.18
43772;HTU21D;59066;54.782;32.024;2022-12-01T12:14:54;1.25;61.13
43772;HTU21D;59066;54.782;32.024;2022-12-01T12:23:01;1.28;60.75
43772;HTU21D;59066;54.782;32.024;2022-12-01T12:34:36;0.43;61.00
43772;HTU21D;59066;54.782;32.024;2022-12-01T12:48:44;-0.30;61.25
43772;HTU21D;59066;54.782;32.024;2022-12-01T12:51:34;-0.47;61.63
43772;HTU21D;59066;54.782;32.024;2022-12-01T12:56:39;-0.66;61.69
43772;HTU21D;59066;54.782;32.024;2022-12-01T13:02:21;-0.88;61.89
43772;HTU21D;59066;54.782;32.024;2022-12-01T13:10:46;-1.19;62.44
43772;HTU21D;59066;54.782;32.024;2022-12-01T13:13:35;-1.33;62.74
43772;HTU21D;59066;54.782;32.024;2022-12-01T13:16:08;-1.40;62.78
43772;HTU21D;59066;54.782;32.024;2022-12-01T13:18:58;-1.42;62.90
43772;HTU21D;59066;54.782;32.024;2022-12-01T13:21:34;-1.48;62.95
43772;HTU21D;59066;54.782;32.024;2022-12-01T13:24:03;-1.64;63.23
43772;HTU21D;59066;54.782;32.024;2022-12-01T13:26:35;-1.69;63.13
43772;HTU21D;59066;54.782;32.024;2022-12-01T13:29:05;-1.71;63.27
43772;HTU21D;59066;54.782;32.024;2022-12-01T13:31:45;-1.79;63.31
43772;HTU21D;59066;54.782;32.024;2022-12-01T13:37:03;-1.85;63.48
43772;HTU21D;59066;54.782;32.024;2022-12-01T13:39:39;-1.94;63.58
43772;HTU21D;59066;54.782;32.024;2022-12-01T13:42:34;-2.02;63.85
43772;HTU21D;59066;54.782;32.024;2022-12-01T13:45:17;-2.06;64.03
43772;HTU21D;59066;54.782;32.024;2022-12-01T13:47:53;-2.09;64.09
43772;HTU21D;59066;54.782;32.024;2022-12-01T13:53:29;-2.17;64.27
43772;HTU21D;59066;54.782;32.024;2022-12-01T14:03:53;-2.12;64.62
43772;HTU21D;59066;54.782;32.024;2022-12-01T14:09:12;-2.14;65.04
43772;HTU21D;59066;54.782;32.024;2022-12-01T14:11:54;-2.14;65.09
43772;HTU21D;59066;54.782;32.024;2022-12-01T14:14:24;-2.14;64.89
43772;HTU21D;59066;54.782;32.024;2022-12-01T14:16:59;-2.18;65.23
43772;HTU21D;59066;54.782;32.024;2022-12-01T14:19:45;-2.14;65.53
43772;HTU21D;59066;54.782;32.024;2022-12-01T14:22:33;-2.17;65.40
43772;HTU21D;59066;54.782;32.024;2022-12-01T14:25:03;-2.17;65.50
43772;HTU21D;59066;54.782;32.024;2022-12-01T14:27:43;-2.15;65.49
43772;HTU21D;59066;54.782;32.024;2022-12-01T14:38:42;-2.04;65.57
43772;HTU21D;59066;54.782;32.024;2022-12-01T14:41:18;-2.03;65.74
43772;HTU21D;59066;54.782;32.024;2022-12-01T14:43:52;-2.08;65.88
43772;HTU21D;59066;54.782;32.024;2022-12-01T14:46:43;-2.04;65.88
43772;HTU21D;59066;54.782;32.024;2022-12-01T14:49:25;-2.06;65.87
43772;HTU21D;59066;54.782;32.024;2022-12-01T14:52:03;-2.03;65.93
43772;HTU21D;59066;54.782;32.024;2022-12-01T14:54:46;-2.03;65.95
43772;HTU21D;59066;54.782;32.024;2022-12-01T14:57:17;-2.10;66.11
43772;HTU21D;59066;54.782;32.024;2022-12-01T15:00:07;-2.07;66.24
43772;HTU21D;59066;54.782;32.024;2022-12-01T15:02:46;-2.05;66.13
43772;HTU21D;59066;54.782;32.024;2022-12-01T15:05:16;-2.00;66.20
43772;HTU21D;59066;54.782;32.024;2022-12-01T15:07:52;-2.08;66.23
43772;HTU21D;59066;54.782;32.024;2022-12-01T15:10:32;-2.09;66.30
43772;HTU21D;59066;54.782;32.024;2022-12-01T15:13:26;-2.10;66.32
43772;HTU21D;59066;54.782;32.024;2022-12-01T15:16:04;-2.07;66.24
43772;HTU21D;59066;54.782;32.024;2022-12-01T15:18:38;-2.01;66.18
43772;HTU21D;59066;54.782;32.024;2022-12-01T15:24:15;-2.02;66.31
43772;HTU21D;59066;54.782;32.024;2022-12-01T15:26:47;-2.04;66.32
43772;HTU21D;59066;54.782;32.024;2022-12-01T15:29:35;-2.01;66.26
43772;HTU21D;59066;54.782;32.024;2022-12-01T15:32:07;-2.04;66.03
43772;HTU21D;59066;54.782;32.024;2022-12-01T15:34:40;-2.06;66.32
43772;HTU21D;59066;54.782;32.024;2022-12-01T15:37:18;-2.04;66.15
43772;HTU21D;59066;54.782;32.024;2022-12-01T15:39:57;-2.03;66.18
43772;HTU21D;59066;54.782;32.024;2022-12-01T15:43:03;-2.06;66.24
43772;HTU21D;59066;54.782;32.024;2022-12-01T15:45:41;-2.08;66.21
43772;HTU21D;59066;54.782;32.024;2022-12-01T15:48:29;-2.05;66.27
43772;HTU21D;59066;54.782;32.024;2022-12-01T15:53:32;-2.01;66.28
43772;HTU21D;59066;54.782;32.024;2022-12-01T15:56:04;-2.04;66.23
43772;HTU21D;59066;54.782;32.024;2022-12-01T15:58:35;-2.01;66.29
43772;HTU21D;59066;54.782;32.024;2022-12-01T16:01:28;-1.99;66.32
43772;HTU21D;59066;54.782;32.024;2022-12-01T16:04:00;-2.01;66.33
43772;HTU21D;59066;54.782;32.024;2022-12-01T16:06:36;-2.02;66.14
43772;HTU21D;59066;54.782;32.024;2022-12-01T16:09:06;-2.03;66.19
43772;HTU21D;59066;54.782;32.024;2022-12-01T16:17:48;-2.13;65.67
43772;HTU21D;59066;54.782;32.024;2022-12-01T16:20:31;-2.12;65.60
43772;HTU21D;59066;54.782;32.024;2022-12-01T16:23:10;-2.14;65.84
43772;HTU21D;59066;54.782;32.024;2022-12-01T16:25:43;-2.10;65.78
43772;HTU21D;59066;54.782;32.024;2022-12-01T16:28:21;-2.08;65.83
43772;HTU21D;59066;54.782;32.024;2022-12-01T16:30:49;-2.03;65.90
43772;HTU21D;59066;54.782;32.024;2022-12-01T16:33:23;-2.03;65.82
43772;HTU21D;59066;54.782;32.024;2022-12-01T16:35:51;-2.01;65.82
43772;HTU21D;59066;54.782;32.024;2022-12-01T16:38:21;-2.00;65.81
43772;HTU21D;59066;54.782;32.024;2022-12-01T16:40:53;-2.03;65.91
43772;HTU21D;59066;54.782;32.024;2022-12-01T16:43:23;-1.98;65.85
43772;HTU21D;59066;54.782;32.024;2022-12-01T16:46:02;-2.03;65.62
43772;HTU21D;59066;54.782;32.024;2022-12-01T16:48:30;-2.05;65.86
43772;HTU21D;59066;54.782;32.024;2022-12-01T16:51:01;-2.06;65.78
43772;HTU21D;59066;54.782;32.024;2022-12-01T16:53:29;-2.02;65.85
43772;HTU21D;59066;54.782;32.024;2022-12-01T16:55:59;-1.98;65.82
43772;HTU21D;59066;54.782;32.024;2022-12-01T16:58:28;-1.98;65.98
43772;HTU21D;59066;54.782;32.024;2022-12-01T17:00:56;-1.99;65.98
43772;HTU21D;59066;54.782;32.024;2022-12-01T17:03:25;-2.02;66.07
43772;HTU21D;59066;54.782;32.024;2022-12-01T17:05:53;-1.97;65.95
43772;HTU21D;59066;54.782;32.024;2022-12-01T17:08:21;-1.93;66.03
43772;HTU21D;59066;54.782;32.024;2022-12-01T17:10:50;-1.91;66.00
43772;HTU21D;59066;54.782;32.024;2022-12-01T17:13:19;-1.97;65.88
43772;HTU21D;59066;54.782;32.024;2022-12-01T17:15:52;-2.09;65.99
43772;HTU21D;59066;54.782;32.024;2022-12-01T17:18:21;-2.07;66.14
43772;HTU21D;59066;54.782;32.024;2022-12-01T17:21:03;-2.12;66.15
43772;HTU21D;59066;54.782;32.024;2022-12-01T17:23:32;-2.20;66.14
43772;HTU21D;59066;54.782;32.024;2022-12-01T17:26:00;-2.19;66.11
43772;HTU21D;59066;54.782;32.024;2022-12-01T17:28:27;-2.28;66.06
43772;HTU21D;59066;54.782;32.024;2022-12-01T17:30:59;-2.30;66.13
43772;HTU21D;59066;54.782;32.024;2022-12-01T17:33:26;-2.33;66.12
43772;HTU21D;59066;54.782;32.024;2022-12-01T17:35:54;-2.35;66.11
43772;HTU21D;59066;54.782;32.024;2022-12-01T17:38:21;-2.43;66.07
43772;HTU21D;59066;54.782;32.024;2022-12-01T17:41:09;-2.50;66.17
43772;HTU21D;59066;54.782;32.024;2022-12-01T17:43:37;-2.66;66.39
43772;HTU21D;59066;54.782;32.024;2022-12-01T17:46:07;-2.68;66.42
43772;HTU21D;59066;54.782;32.024;2022-12-01T17:48:39;-2.71;66.56
43772;HTU21D;59066;54.782;32.024;2022-12-01T17:51:08;-2.65;66.51
43772;HTU21D;59066;54.782;32.024;2022-12-01T17:53:36;-2.68;66.36
43772;HTU21D;59066;54.782;32.024;2022-12-01T17:56:07;-2.60;66.39
43772;HTU21D;59066;54.782;32.024;2022-12-01T17:58:36;-2.73;66.42
43772;HTU21D;59066;54.782;32.024;2022-12-01T18:01:05;-2.72;66.57
43772;HTU21D;59066;54.782;32.024;2022-12-01T18:03:32;-2.66;66.49